sensor_id;sensor_type;location;lat;lon;timestamp;pressure;altitude;pressure_sealevel;temperature;humidity
16834;BME280;8533;48.426;10.868;2023-04-02T00:01:12;95336.44;;;6.81;100.00
16834;BME280;8533;48.426;10.868;2023-04-02T00:06:33;95346.88;;;6.84;100.00
16834;BME280;8533;48.426;10.868;2023-04-02T00:09:03;95339.31;;;6.82;100.00
16834;BME280;8533;48.426;10.868;2023-04-02T00:11:33;95344.78;;;6.81;100.00
16834;BME280;8533;48.426;10.868;2023-04-02T00:14:04;95348.18;;;6.84;100.00
16834;BME280;8533;48.426;10.868;2023-04-02T00:16:32;95343.48;;;6.81;100.00
16834;BME280;8533;48.426;10.868;2023-04-02T00:19:03;95344.00;;;6.83;100.00
16834;BME280;8533;48.426;10.868;2023-04-02T00:21:37;95356.53;;;6.86;100.00
16834;BME280;8533;48.426;10.868;2023-04-02T00:24:20;95357.83;;;6.86;100.00
16834;BME280;8533;48.426;10.868;2023-04-02T00:26:45;95352.08;;;6.84;100.00
16834;BME280;8533;48.426;10.868;2023-04-02T00:29:15;95353.38;;;6.84;100.00
16834;BME280;8533;48.426;10.868;2023-04-02T00:31:50;95356.48;;;6.83;100.00
16834;BME280;8533;48.426;10.868;2023-04-02T00:34:20;95355.42;;;6.82;100.00
16834;BME280;8533;48.426;10.868;2023-04-02T00:36:49;95358.02;;;6.82;100.00
16834;BME280;8533;48.426;10.868;2023-04-02T00:39:24;95365.82;;;6.82;100.00
16834;BME280;8533;48.426;10.868;2023-04-02T00:41:48;95368.17;;;6.81;100.00
16834;BME280;8533;48.426;10.868;2023-04-02T00:44:18;95372.08;;;6.83;100.00
16834;BME280;8533;48.426;10.868;2023-04-02T00:46:47;95373.38;;;6.83;100.00
16834;BME280;8533;48.426;10.868;2023-04-02T00:49:19;95370.55;;;6.85;100.00
16834;BME280;8533;48.426;10.868;2023-04-02T00:52:00;95369.99;;;6.83;100.00
16834;BME280;8533;48.426;10.868;2023-04-02T00:54:22;95368.42;;;6.82;100.00
16834;BME280;8533;48.426;10.868;2023-04-02T00:56:54;95368.17;;;6.81;100.00
16834;BME280;8533;48.426;10.868;2023-04-02T00:59:30;95369.43;;;6.78;100.00
16834;BME280;8533;48.426;10.868;2023-04-02T01:01:59;95374.11;;;6.79;100.00
16834;BME280;8533;48.426;10.868;2023-04-02T01:04:32;95373.56;;;6.77;100.00
16834;BME280;8533;48.426;10.868;2023-04-02T01:07:06;95371.20;;;6.75;100.00
16834;BME280;8533;48.426;10.868;2023-04-02T01:12:47;95376.63;;;6.74;100.00
16834;BME280;8533;48.426;10.868;2023-04-02T01:15:17;95385.98;;;6.72;100.00
16834;BME280;8533;48.426;10.868;2023-04-02T01:18:01;95383.34;;;6.70;100.00
16834;BME280;8533;48.426;10.868;2023-04-02T01:20:53;95391.38;;;6.68;100.00
16834;BME280;8533;48.426;10.868;2023-04-02T01:23:33;95388.73;;;6.66;100.00
16834;BME280;8533;48.426;10.868;2023-04-02T01:26:13;95390.30;;;6.67;100.00
16834;BME280;8533;48.426;10.868;2023-04-02T01:31:22;95387.70;;;6.67;100.00
16834;BME280;8533;48.426;10.868;2023-04-02T01:33:49;95402.48;;;6.64;100.00
16834;BME280;8533;48.426;10.868;2023-04-02T01:44:53;95406.30;;;6.59;100.00
16834;BME280;8533;48.426;10.868;2023-04-02T01:47:21;95409.41;;;6.58;100.00
16834;BME280;8533;48.426;10.868;2023-04-02T01:50:02;95405.55;;;6.61;100.00
16834;BME280;8533;48.426;10.868;2023-04-02T01:52:33;95414.37;;;6.60;100.00
16834;BME280;8533;48.426;10.868;2023-04-02T01:55:00;95415.39;;;6.59;100.00
16834;BME280;8533;48.426;10.868;2023-04-02T01:57:28;95417.98;;;6.59;100.00
16834;BME280;8533;48.426;10.868;2023-04-02T01:59:57;95416.17;;;6.59;100.00
16834;BME280;8533;48.426;10.868;2023-04-02T02:02:26;95417.20;;;6.58;100.00
16834;BME280;8533;48.426;10.868;2023-04-02T02:04:54;95426.55;;;6.57;100.00
16834;BME280;8533;48.426;10.868;2023-04-02T02:07:22;95424.46;;;6.56;100.00
16834;BME280;8533;48.426;10.868;2023-04-02T02:09:51;95430.95;;;6.56;100.00
16834;BME280;8533;48.426;10.868;2023-04-02T02:12:19;95432.20;;;6.54;100.00
16834;BME280;8533;48.426;10.868;2023-04-02T02:14:48;95429.89;;;6.55;100.00
16834;BME280;8533;48.426;10.868;2023-04-02T02:17:22;95433.51;;;6.54;100.00
16834;BME280;8533;48.426;10.868;2023-04-02T02:19:51;95437.69;;;6.55;100.00
16834;BME280;8533;48.426;10.868;2023-04-02T02:22:28;95442.87;;;6.55;100.00
16834;BME280;8533;48.426;10.868;2023-04-02T02:24:56;95437.13;;;6.53;100.00
16834;BME280;8533;48.426;10.868;2023-04-02T02:29:59;95441.25;;;6.51;100.00
16834;BME280;8533;48.426;10.868;2023-04-02T02:32:29;95444.08;;;6.49;100.00
16834;BME280;8533;48.426;10.868;2023-04-02T02:35:11;95455.77;;;6.49;100.00
16834;BME280;8533;48.426;10.868;2023-04-02T02:37:47;95442.25;;;6.47;100.00
16834;BME280;8533;48.426;10.868;2023-04-02T02:40:20;95449.48;;;6.45;100.00
16834;BME280;8533;48.426;10.868;2023-04-02T02:42:49;95452.88;;;6.46;100.00
16834;BME280;8533;48.426;10.868;2023-04-02T02:45:19;95453.10;;;6.44;100.00
16834;BME280;8533;48.426;10.868;2023-04-02T02:47:47;95453.61;;;6.44;100.00
16834;BME280;8533;48.426;10.868;2023-04-02T02:50:24;95457.00;;;6.44;100.00
16834;BME280;8533;48.426;10.868;2023-04-02T02:52:54;95457.73;;;6.42;100.00
16834;BME280;8533;48.426;10.868;2023-04-02T02:55:25;95458.76;;;6.41;100.00
16834;BME280;8533;48.426;10.868;2023-04-02T02:57:55;95454.33;;;6.39;100.00
16834;BME280;8533;48.426;10.868;2023-04-02T03:00:24;95453.77;;;6.37;100.00
16834;BME280;8533;48.426;10.868;2023-04-02T03:02:54;95462.12;;;6.39;100.00
16834;BME280;8533;48.426;10.868;2023-04-02T03:05:25;95469.36;;;6.37;100.00
16834;BME280;8533;48.426;10.868;2023-04-02T03:07:56;95466.20;;;6.35;100.00
16834;BME280;8533;48.426;10.868;2023-04-02T03:10:40;95469.81;;;6.34;100.00
16834;BME280;8533;48.426;10.868;2023-04-02T03:13:31;95476.53;;;6.33;100.00
16834;BME280;8533;48.426;10.868;2023-04-02T03:16:13;95480.69;;;6.31;100.00
16834;BME280;8533;48.426;10.868;2023-04-02T03:21:19;95475.67;;;6.27;100.00
16834;BME280;8533;48.426;10.868;2023-04-02T03:23:49;95476.41;;;6.25;100.00
16834;BME280;8533;48.426;10.868;2023-04-02T03:26:38;95476.16;;;6.24;100.00
16834;BME280;8533;48.426;10.868;2023-04-02T03:29:15;95480.00;;;6.22;100.00
16834;BME280;8533;48.426;10.868;2023-04-02T03:31:53;95486.77;;;6.23;100.00
16834;BME280;8533;48.426;10.868;2023-04-02T03:34:21;95489.59;;;6.21;100.00
16834;BME280;8533;48.426;10.868;2023-04-02T03:37:01;95486.94;;;6.19;100.00
16834;BME280;8533;48.426;10.868;2023-04-02T03:39:39;95491.91;;;6.20;100.00
16834;BME280;8533;48.426;10.868;2023-04-02T03:42:06;95491.63;;;6.19;100.00
16834;BME280;8533;48.426;10.868;2023-04-02T03:44:34;95502.23;;;6.18;100.00
16834;BME280;8533;48.426;10.868;2023-04-02T03:47:09;95502.75;;;6.17;100.00
16834;BME280;8533;48.426;10.868;2023-04-02T03:49:46;95506.39;;;6.16;100.00
16834;BME280;8533;48.426;10.868;2023-04-02T03:52:09;95505.34;;;6.17;100.00
16834;BME280;8533;48.426;10.868;2023-04-02T03:54:38;95510.28;;;6.16;100.00
16834;BME280;8533;48.426;10.868;2023-04-02T03:57:17;95507.13;;;6.14;100.00
16834;BME280;8533;48.426;10.868;2023-04-02T03:59:47;95507.35;;;6.12;100.00
16834;BME280;8533;48.426;10.868;2023-04-02T04:02:25;95512.27;;;6.11;100.00
16834;BME280;8533;48.426;10.868;2023-04-02T04:04:46;95509.16;;;6.12;100.00
16834;BME280;8533;48.426;10.868;2023-04-02T04:07:33;95513.56;;;6.11;100.00
16834;BME280;8533;48.426;10.868;2023-04-02T04:10:02;95519.77;;;6.10;100.00
16834;BME280;8533;48.426;10.868;2023-04-02T04:12:38;95520.28;;;6.10;100.00
16834;BME280;8533;48.426;10.868;2023-04-02T04:15:16;95523.89;;;6.09;100.00
16834;BME280;8533;48.426;10.868;2023-04-02T04:17:52;95527.25;;;6.07;100.00
16834;BME280;8533;48.426;10.868;2023-04-02T04:20:19;95529.56;;;6.06;100.00
16834;BME280;8533;48.426;10.868;2023-04-02T04:22:48;95534.53;;;6.07;100.00
16834;BME280;8533;48.426;10.868;2023-04-02T04:25:27;95531.88;;;6.05;100.00
16834;BME280;8533;48.426;10.868;2023-04-02T04:27:56;95531.65;;;6.06;100.00
16834;BME280;8533;48.426;10.868;2023-04-02T04:30:43;95531.65;;;6.06;100.00
16834;BME280;8533;48.426;10.868;2023-04-02T04:33:18;95540.39;;;6.03;100.00
16834;BME280;8533;48.426;10.868;2023-04-02T04:35:57;95534.92;;;6.02;100.00
16834;BME280;8533;48.426;10.868;2023-04-02T04:38:37;95545.81;;;6.01;100.00
16834;BME280;8533;48.426;10.868;2023-04-02T04:41:09;95552.78;;;5.98;100.00
16834;BME280;8533;48.426;10.868;2023-04-02T04:43:51;95552.50;;;5.97;100.00
16834;BME280;8533;48.426;10.868;2023-04-02T04:46:36;95556.11;;;5.96;100.00
16834;BME280;8533;48.426;10.868;2023-04-02T04:49:04;95558.92;;;5.95;100.00
16834;BME280;8533;48.426;10.868;2023-04-02T04:54:04;95567.13;;;5.89;100.00
16834;BME280;8533;48.426;10.868;2023-04-02T04:56:32;95567.04;;;5.87;100.00
16834;BME280;8533;48.426;10.868;2023-04-02T04:59:10;95570.94;;;5.87;100.00
16834;BME280;8533;48.426;10.868;2023-04-02T05:01:39;95574.77;;;5.84;100.00
16834;BME280;8533;48.426;10.868;2023-04-02T05:04:18;95577.11;;;5.83;100.00
16834;BME280;8533;48.426;10.868;2023-04-02T05:06:49;95571.00;;;5.78;100.00
16834;BME280;8533;48.426;10.868;2023-04-02T05:12:25;95587.33;;;5.75;100.00
16834;BME280;8533;48.426;10.868;2023-04-02T05:14:59;95594.32;;;5.75;100.00
16834;BME280;8533;48.426;10.868;2023-04-02T05:17:27;95593.53;;;5.74;100.00
16834;BME280;8533;48.426;10.868;2023-04-02T05:22:55;95600.75;;;5.72;100.00
16834;BME280;8533;48.426;10.868;2023-04-02T05:25:26;95598.66;;;5.72;100.00
16834;BME280;8533;48.426;10.868;2023-04-02T05:30:41;95602.70;;;5.68;100.00
16834;BME280;8533;48.426;10.868;2023-04-02T05:33:29;95607.39;;;5.68;100.00
16834;BME280;8533;48.426;10.868;2023-04-02T05:38:29;95612.48;;;5.63;100.00
16834;BME280;8533;48.426;10.868;2023-04-02T05:41:10;95616.09;;;5.62;100.00
16834;BME280;8533;48.426;10.868;2023-04-02T05:43:33;95624.16;;;5.63;100.00
16834;BME280;8533;48.426;10.868;2023-04-02T05:46:05;95630.35;;;5.62;100.00
16834;BME280;8533;48.426;10.868;2023-04-02T05:48:41;95630.92;;;5.64;100.00
16834;BME280;8533;48.426;10.868;2023-04-02T05:51:13;95629.05;;;5.62;100.00
16834;BME280;8533;48.426;10.868;2023-04-02T05:53:39;95636.69;;;5.66;100.00
16834;BME280;8533;48.426;10.868;2023-04-02T05:58:48;95635.39;;;5.66;100.00
16834;BME280;8533;48.426;10.868;2023-04-02T06:04:41;95641.37;;;5.67;100.00
16834;BME280;8533;48.426;10.868;2023-04-02T06:07:18;95645.08;;;5.71;100.00
16834;BME280;8533;48.426;10.868;2023-04-02T06:09:47;95653.71;;;5.74;100.00
16834;BME280;8533;48.426;10.868;2023-04-02T06:12:29;95650.61;;;5.74;100.00
16834;BME280;8533;48.426;10.868;2023-04-02T06:14:57;95662.39;;;5.80;100.00
16834;BME280;8533;48.426;10.868;2023-04-02T06:17:24;95659.17;;;5.87;100.00
16834;BME280;8533;48.426;10.868;2023-04-02T06:19:53;95658.75;;;5.90;100.00
16834;BME280;8533;48.426;10.868;2023-04-02T06:22:37;95666.86;;;5.93;100.00
16834;BME280;8533;48.426;10.868;2023-04-02T06:25:16;95660.59;;;6.03;100.00
16834;BME280;8533;48.426;10.868;2023-04-02T06:27:42;95663.85;;;6.10;100.00
16834;BME280;8533;48.426;10.868;2023-04-02T06:30:16;95665.30;;;6.18;100.00
16834;BME280;8533;48.426;10.868;2023-04-02T06:32:45;95670.77;;;6.31;100.00
16834;BME280;8533;48.426;10.868;2023-04-02T06:35:13;95676.27;;;6.46;100.00
16834;BME280;8533;48.426;10.868;2023-04-02T06:37:44;95682.69;;;6.55;100.00
16834;BME280;8533;48.426;10.868;2023-04-02T06:43:11;95693.14;;;6.86;100.00
16834;BME280;8533;48.426;10.868;2023-04-02T06:45:35;95693.98;;;6.89;100.00
16834;BME280;8533;48.426;10.868;2023-04-02T06:48:11;95695.53;;;6.90;100.00
16834;BME280;8533;48.426;10.868;2023-04-02T06:53:26;95708.30;;;7.06;100.00
16834;BME280;8533;48.426;10.868;2023-04-02T06:56:05;95708.53;;;7.18;100.00
16834;BME280;8533;48.426;10.868;2023-04-02T06:58:28;95713.44;;;7.32;100.00
16834;BME280;8533;48.426;10.868;2023-04-02T07:00:56;95717.19;;;7.38;100.00
16834;BME280;8533;48.426;10.868;2023-04-02T07:03:26;95713.95;;;7.45;100.00
16834;BME280;8533;48.426;10.868;2023-04-02T07:05:55;95724.02;;;7.42;100.00
16834;BME280;8533;48.426;10.868;2023-04-02T07:08:22;95720.75;;;7.49;100.00
16834;BME280;8533;48.426;10.868;2023-04-02T07:10:50;95723.20;;;7.72;100.00
16834;BME280;8533;48.426;10.868;2023-04-02T07:13:20;95718.70;;;8.01;100.00
16834;BME280;8533;48.426;10.868;2023-04-02T07:15:53;95712.84;;;8.30;100.00
16834;BME280;8533;48.426;10.868;2023-04-02T07:18:29;95725.02;;;8.43;100.00
16834;BME280;8533;48.426;10.868;2023-04-02T07:20:57;95723.07;;;8.53;100.00
16834;BME280;8533;48.426;10.868;2023-04-02T07:23:25;95727.16;;;8.66;100.00
16834;BME280;8533;48.426;10.868;2023-04-02T07:25:54;95729.59;;;8.97;100.00
16834;BME280;8533;48.426;10.868;2023-04-02T07:28:23;95734.40;;;9.34;100.00
16834;BME280;8533;48.426;10.868;2023-04-02T07:30:51;95738.24;;;9.53;100.00
16834;BME280;8533;48.426;10.868;2023-04-02T07:33:23;95733.81;;;9.54;100.00
16834;BME280;8533;48.426;10.868;2023-04-02T07:35:51;95741.84;;;9.50;100.00
16834;BME280;8533;48.426;10.868;2023-04-02T07:38:19;95738.76;;;9.53;100.00
16834;BME280;8533;48.426;10.868;2023-04-02T07:40:46;95745.08;;;9.60;100.00
16834;BME280;8533;48.426;10.868;2023-04-02T07:43:15;95749.75;;;9.55;100.00
16834;BME280;8533;48.426;10.868;2023-04-02T07:45:42;95749.41;;;9.46;100.00
16834;BME280;8533;48.426;10.868;2023-04-02T07:48:12;95756.76;;;9.52;100.00
16834;BME280;8533;48.426;10.868;2023-04-02T07:50:40;95758.13;;;9.60;100.00
16834;BME280;8533;48.426;10.868;2023-04-02T07:53:14;95761.43;;;9.50;100.00
16834;BME280;8533;48.426;10.868;2023-04-02T07:55:40;95762.15;;;9.43;100.00
16834;BME280;8533;48.426;10.868;2023-04-02T07:58:09;95765.52;;;9.41;100.00
16834;BME280;8533;48.426;10.868;2023-04-02T08:00:37;95766.95;;;9.53;100.00
16834;BME280;8533;48.426;10.868;2023-04-02T08:03:04;95766.14;;;9.50;100.00
16834;BME280;8533;48.426;10.868;2023-04-02T08:05:32;95766.20;;;9.55;100.00
16834;BME280;8533;48.426;10.868;2023-04-02T08:07:59;95776.44;;;9.62;100.00
16834;BME280;8533;48.426;10.868;2023-04-02T08:10:27;95779.02;;;9.60;100.00
16834;BME280;8533;48.426;10.868;2023-04-02T08:12:54;95775.00;;;9.49;100.00
16834;BME280;8533;48.426;10.868;2023-04-02T08:15:22;95784.77;;;9.32;100.00
16834;BME280;8533;48.426;10.868;2023-04-02T08:17:49;95787.38;;;9.32;100.00
16834;BME280;8533;48.426;10.868;2023-04-02T08:20:19;95789.44;;;9.30;100.00
16834;BME280;8533;48.426;10.868;2023-04-02T08:22:48;95784.50;;;9.34;100.00
16834;BME280;8533;48.426;10.868;2023-04-02T08:25:16;95783.83;;;9.43;100.00
16834;BME280;8533;48.426;10.868;2023-04-02T08:27:45;95786.64;;;9.64;100.00
16834;BME280;8533;48.426;10.868;2023-04-02T08:30:14;95787.40;;;9.62;100.00
16834;BME280;8533;48.426;10.868;2023-04-02T08:32:42;95788.30;;;9.75;100.00
16834;BME280;8533;48.426;10.868;2023-04-02T08:35:13;95793.31;;;9.81;100.00
16834;BME280;8533;48.426;10.868;2023-04-02T08:37:42;95792.22;;;10.04;100.00
16834;BME280;8533;48.426;10.868;2023-04-02T08:40:19;95794.13;;;10.16;100.00
16834;BME280;8533;48.426;10.868;2023-04-02T08:42:49;95796.55;;;10.20;99.22
16834;BME280;8533;48.426;10.868;2023-04-02T08:48:15;95799.48;;;10.31;98.18
16834;BME280;8533;48.426;10.868;2023-04-02T08:50:44;95797.77;;;10.45;97.88
16834;BME280;8533;48.426;10.868;2023-04-02T08:53:24;95800.42;;;10.52;96.58
16834;BME280;8533;48.426;10.868;2023-04-02T08:55:51;95806.95;;;10.52;96.21
16834;BME280;8533;48.426;10.868;2023-04-02T08:58:29;95810.83;;;10.47;95.86
16834;BME280;8533;48.426;10.868;2023-04-02T09:00:55;95812.66;;;10.47;94.36
16834;BME280;8533;48.426;10.868;2023-04-02T09:03:34;95809.48;;;10.37;95.53
16834;BME280;8533;48.426;10.868;2023-04-02T09:05:59;95819.55;;;10.21;97.93
16834;BME280;8533;48.426;10.868;2023-04-02T09:08:30;95823.30;;;10.03;98.72
16834;BME280;8533;48.426;10.868;2023-04-02T09:11:18;95823.23;;;9.95;99.82
16834;BME280;8533;48.426;10.868;2023-04-02T09:13:45;95827.61;;;9.90;100.00
16834;BME280;8533;48.426;10.868;2023-04-02T09:16:16;95825.78;;;9.88;100.00
16834;BME280;8533;48.426;10.868;2023-04-02T09:18:46;95830.22;;;9.87;100.00
16834;BME280;8533;48.426;10.868;2023-04-02T09:23:48;95835.38;;;9.82;100.00
16834;BME280;8533;48.426;10.868;2023-04-02T09:26:21;95840.08;;;9.83;100.00
16834;BME280;8533;48.426;10.868;2023-04-02T09:28:51;95843.31;;;9.92;100.00
16834;BME280;8533;48.426;10.868;2023-04-02T09:31:22;95848.74;;;9.86;100.00
16834;BME280;8533;48.426;10.868;2023-04-02T09:33:51;95848.67;;;10.05;100.00
16834;BME280;8533;48.426;10.868;2023-04-02T09:38:57;95854.92;;;10.07;100.00
16834;BME280;8533;48.426;10.868;2023-04-02T09:41:27;95856.30;;;9.85;100.00
16834;BME280;8533;48.426;10.868;2023-04-02T09:44:13;95859.73;;;9.88;100.00
16834;BME280;8533;48.426;10.868;2023-04-02T09:46:54;95854.34;;;9.97;100.00
16834;BME280;8533;48.426;10.868;2023-04-02T09:49:17;95858.94;;;10.17;100.00
16834;BME280;8533;48.426;10.868;2023-04-02T09:51:45;95859.88;;;10.06;100.00
16834;BME280;8533;48.426;10.868;2023-04-02T09:54:16;95862.20;;;10.26;100.00
16834;BME280;8533;48.426;10.868;2023-04-02T09:57:00;95865.02;;;10.22;99.42
16834;BME280;8533;48.426;10.868;2023-04-02T09:59:29;95870.03;;;10.26;98.02
16834;BME280;8533;48.426;10.868;2023-04-02T10:02:00;95875.53;;;10.27;98.34
16834;BME280;8533;48.426;10.868;2023-04-02T10:04:45;95879.48;;;10.32;99.67
16834;BME280;8533;48.426;10.868;2023-04-02T10:09:59;95886.17;;;10.50;100.00
16834;BME280;8533;48.426;10.868;2023-04-02T10:12:35;95886.69;;;10.50;97.28
16834;BME280;8533;48.426;10.868;2023-04-02T10:15:03;95887.99;;;10.50;98.97
16834;BME280;8533;48.426;10.868;2023-04-02T10:17:35;95891.19;;;10.57;99.06
16834;BME280;8533;48.426;10.868;2023-04-02T10:20:23;95889.41;;;10.65;97.56
16834;BME280;8533;48.426;10.868;2023-04-02T10:22:36;95889.47;;;10.70;95.29
16834;BME280;8533;48.426;10.868;2023-04-02T10:25:17;95888.88;;;10.28;96.88
16834;BME280;8533;48.426;10.868;2023-04-02T10:27:54;95892.47;;;10.52;96.04
16834;BME280;8533;48.426;10.868;2023-04-02T10:30:25;95890.22;;;10.33;98.22
16834;BME280;8533;48.426;10.868;2023-04-02T10:32:56;95893.98;;;10.45;97.22
16834;BME280;8533;48.426;10.868;2023-04-02T10:35:41;95894.94;;;10.68;94.61
16834;BME280;8533;48.426;10.868;2023-04-02T10:41:21;95892.28;;;11.05;93.01
16834;BME280;8533;48.426;10.868;2023-04-02T10:55:27;95904.21;;;11.36;89.70
16834;BME280;8533;48.426;10.868;2023-04-02T10:57:42;95909.11;;;11.17;89.47
16834;BME280;8533;48.426;10.868;2023-04-02T11:05:21;95918.40;;;11.45;89.13
16834;BME280;8533;48.426;10.868;2023-04-02T11:10:25;95917.24;;;11.78;87.98
16834;BME280;8533;48.426;10.868;2023-04-02T11:13:12;95917.50;;;11.76;87.98
16834;BME280;8533;48.426;10.868;2023-04-02T11:15:31;95919.81;;;11.70;87.29
16834;BME280;8533;48.426;10.868;2023-04-02T11:17:59;95912.98;;;11.64;89.20
16834;BME280;8533;48.426;10.868;2023-04-02T11:20:47;95913.43;;;11.46;89.41
16834;BME280;8533;48.426;10.868;2023-04-02T11:23:13;95911.41;;;11.68;87.70
16834;BME280;8533;48.426;10.868;2023-04-02T11:25:42;95910.45;;;11.82;88.62
16834;BME280;8533;48.426;10.868;2023-04-02T11:28:28;95910.20;;;11.83;86.25
16834;BME280;8533;48.426;10.868;2023-04-02T11:30:57;95911.69;;;11.67;86.99
16834;BME280;8533;48.426;10.868;2023-04-02T11:36:00;95924.97;;;11.47;88.36
16834;BME280;8533;48.426;10.868;2023-04-02T11:38:46;95921.33;;;11.51;89.05
16834;BME280;8533;48.426;10.868;2023-04-02T11:41:07;95930.53;;;11.64;88.01
16834;BME280;8533;48.426;10.868;2023-04-02T11:48:46;95938.89;;;12.53;84.54
16834;BME280;8533;48.426;10.868;2023-04-02T11:54:00;95933.07;;;14.02;74.03
16834;BME280;8533;48.426;10.868;2023-04-02T11:56:35;95926.83;;;14.34;72.16
16834;BME280;8533;48.426;10.868;2023-04-02T11:59:08;95930.70;;;15.10;67.48
16834;BME280;8533;48.426;10.868;2023-04-02T12:04:33;95934.88;;;14.09;70.44
16834;BME280;8533;48.426;10.868;2023-04-02T12:09:44;95940.61;;;13.59;73.25
16834;BME280;8533;48.426;10.868;2023-04-02T12:12:39;95940.69;;;13.36;75.93
16834;BME280;8533;48.426;10.868;2023-04-02T12:15:00;95945.67;;;13.30;71.84
16834;BME280;8533;48.426;10.868;2023-04-02T12:17:39;95946.48;;;12.98;75.53
16834;BME280;8533;48.426;10.868;2023-04-02T12:22:45;95946.72;;;12.15;83.22
16834;BME280;8533;48.426;10.868;2023-04-02T12:25:25;95954.53;;;11.98;86.33
16834;BME280;8533;48.426;10.868;2023-04-02T12:30:39;95959.21;;;11.33;98.89
16834;BME280;8533;48.426;10.868;2023-04-02T12:33:33;95965.51;;;11.35;96.09
16834;BME280;8533;48.426;10.868;2023-04-02T12:36:06;95968.98;;;11.06;100.00
16834;BME280;8533;48.426;10.868;2023-04-02T12:38:44;95979.55;;;10.87;100.00
16834;BME280;8533;48.426;10.868;2023-04-02T12:41:25;95977.23;;;10.90;99.15
16834;BME280;8533;48.426;10.868;2023-04-02T12:44:04;95980.47;;;10.70;99.12
16834;BME280;8533;48.426;10.868;2023-04-02T12:46:33;95983.47;;;10.52;100.00
16834;BME280;8533;48.426;10.868;2023-04-02T12:51:35;95990.39;;;10.37;100.00
16834;BME280;8533;48.426;10.868;2023-04-02T12:54:04;95992.62;;;10.25;100.00
16834;BME280;8533;48.426;10.868;2023-04-02T12:56:31;95997.27;;;10.45;100.00
16834;BME280;8533;48.426;10.868;2023-04-02T12:59:00;96004.06;;;10.22;100.00
16834;BME280;8533;48.426;10.868;2023-04-02T13:01:29;95995.34;;;10.38;100.00
16834;BME280;8533;48.426;10.868;2023-04-02T13:04:10;95997.06;;;10.52;100.00
16834;BME280;8533;48.426;10.868;2023-04-02T13:06:38;95997.92;;;10.60;100.00
16834;BME280;8533;48.426;10.868;2023-04-02T13:09:25;96007.94;;;10.41;100.00
16834;BME280;8533;48.426;10.868;2023-04-02T13:11:40;96008.34;;;10.28;100.00
16834;BME280;8533;48.426;10.868;2023-04-02T13:14:17;96006.00;;;10.29;100.00
16834;BME280;8533;48.426;10.868;2023-04-02T13:16:44;96004.86;;;10.22;100.00
16834;BME280;8533;48.426;10.868;2023-04-02T13:21:45;96004.45;;;9.87;100.00
16834;BME280;8533;48.426;10.868;2023-04-02T13:24:16;96003.94;;;9.87;100.00
16834;BME280;8533;48.426;10.868;2023-04-02T13:26:44;96005.95;;;9.83;100.00
16834;BME280;8533;48.426;10.868;2023-04-02T13:29:28;96005.89;;;10.00;100.00
16834;BME280;8533;48.426;10.868;2023-04-02T13:31:56;96005.50;;;10.10;100.00
16834;BME280;8533;48.426;10.868;2023-04-02T13:34:24;96003.44;;;10.15;100.00
16834;BME280;8533;48.426;10.868;2023-04-02T13:36:52;96005.20;;;10.28;100.00
16834;BME280;8533;48.426;10.868;2023-04-02T13:39:20;96007.42;;;10.42;100.00
16834;BME280;8533;48.426;10.868;2023-04-02T13:41:54;96001.23;;;10.50;100.00
16834;BME280;8533;48.426;10.868;2023-04-02T13:44:25;96004.05;;;10.44;100.00
16834;BME280;8533;48.426;10.868;2023-04-02T13:46:49;96008.48;;;10.73;100.00
16834;BME280;8533;48.426;10.868;2023-04-02T13:49:17;96001.03;;;10.86;100.00
16834;BME280;8533;48.426;10.868;2023-04-02T13:51:49;96009.00;;;11.04;100.00
16834;BME280;8533;48.426;10.868;2023-04-02T13:56:58;96023.63;;;10.68;100.00
16834;BME280;8533;48.426;10.868;2023-04-02T13:59:25;96029.36;;;9.73;100.00
16834;BME280;8533;48.426;10.868;2023-04-02T14:01:56;96030.17;;;9.37;100.00
16834;BME280;8533;48.426;10.868;2023-04-02T14:04:29;96036.55;;;9.10;100.00
16834;BME280;8533;48.426;10.868;2023-04-02T14:12:19;96052.05;;;8.69;100.00
16834;BME280;8533;48.426;10.868;2023-04-02T14:14:59;96052.70;;;8.62;100.00
16834;BME280;8533;48.426;10.868;2023-04-02T14:25:33;96075.16;;;8.49;100.00
16834;BME280;8533;48.426;10.868;2023-04-02T14:30:38;96077.94;;;8.45;100.00
16834;BME280;8533;48.426;10.868;2023-04-02T14:36:23;96078.00;;;8.33;100.00
16834;BME280;8533;48.426;10.868;2023-04-02T14:39:00;96087.67;;;8.24;100.00
16834;BME280;8533;48.426;10.868;2023-04-02T14:41:47;96089.05;;;8.15;100.00
16834;BME280;8533;48.426;10.868;2023-04-02T14:44:12;96092.73;;;8.16;100.00
16834;BME280;8533;48.426;10.868;2023-04-02T14:46:41;96084.86;;;8.14;100.00
16834;BME280;8533;48.426;10.868;2023-04-02T14:49:28;96094.27;;;8.15;100.00
16834;BME280;8533;48.426;10.868;2023-04-02T14:52:04;96093.91;;;8.23;100.00
16834;BME280;8533;48.426;10.868;2023-04-02T14:54:33;96100.21;;;8.13;100.00
16834;BME280;8533;48.426;10.868;2023-04-02T14:57:08;96104.12;;;8.13;100.00
16834;BME280;8533;48.426;10.868;2023-04-02T15:02:41;96105.91;;;8.24;100.00
16834;BME280;8533;48.426;10.868;2023-04-02T15:05:25;96102.01;;;8.24;100.00
16834;BME280;8533;48.426;10.868;2023-04-02T15:08:18;96110.28;;;8.32;100.00
16834;BME280;8533;48.426;10.868;2023-04-02T15:14:05;96110.27;;;8.58;100.00
16834;BME280;8533;48.426;10.868;2023-04-02T15:16:33;96116.22;;;8.56;100.00
16834;BME280;8533;48.426;10.868;2023-04-02T15:19:03;96117.97;;;8.39;100.00
16834;BME280;8533;48.426;10.868;2023-04-02T15:24:21;96134.58;;;8.24;100.00
16834;BME280;8533;48.426;10.868;2023-04-02T15:29:43;96133.08;;;8.28;100.00
16834;BME280;8533;48.426;10.868;2023-04-02T15:38:10;96139.67;;;8.42;100.00
16834;BME280;8533;48.426;10.868;2023-04-02T15:46:45;96143.14;;;8.33;100.00
16834;BME280;8533;48.426;10.868;2023-04-02T15:51:49;96150.45;;;8.34;100.00
16834;BME280;8533;48.426;10.868;2023-04-02T15:57:32;96160.06;;;8.22;100.00
16834;BME280;8533;48.426;10.868;2023-04-02T16:08:19;96176.41;;;7.94;100.00
16834;BME280;8533;48.426;10.868;2023-04-02T16:10:42;96177.36;;;7.90;100.00
16834;BME280;8533;48.426;10.868;2023-04-02T16:13:28;96188.34;;;7.69;100.00